createdAt,value
2018-01-26T00:00:59.688Z,7.46
2018-01-26T00:02:02.154Z,7.45
2018-01-26T00:03:04.687Z,7.38
2018-01-26T00:04:07.150Z,7.35
2018-01-26T00:05:09.615Z,7.41
2018-01-26T00:06:12.080Z,7.33
2018-01-26T00:07:14.596Z,7.44
2018-01-26T00:08:17.181Z,7.40
2018-01-26T00:09:19.646Z,7.58
2018-01-26T00:10:22.129Z,7.72
2018-01-26T00:11:24.604Z,7.59
2018-01-26T00:12:27.085Z,7.60
2018-01-26T00:13:29.555Z,7.41
2018-01-26T00:14:32.022Z,7.51
2018-01-26T00:15:34.487Z,7.55
2018-01-26T00:16:37.021Z,7.52
2018-01-26T00:17:39.501Z,7.62
2018-01-26T00:18:41.974Z,7.53
2018-01-26T00:19:44.455Z,7.43
2018-01-26T00:20:46.918Z,7.32
2018-01-26T00:21:49.393Z,7.35
2018-01-26T00:22:51.858Z,7.47
2018-01-26T00:23:54.322Z,7.57
2018-01-26T00:24:56.801Z,7.44
2018-01-26T00:25:59.281Z,7.41
2018-01-26T00:27:01.758Z,7.31
2018-01-26T00:28:04.248Z,7.58
2018-01-26T00:29:06.733Z,7.62
2018-01-26T00:30:09.212Z,7.64
2018-01-26T00:31:11.674Z,7.65
2018-01-26T00:32:14.138Z,7.69
2018-01-26T00:33:16.620Z,7.70
2018-01-26T00:34:19.091Z,7.66
2018-01-26T00:35:21.555Z,7.64
2018-01-26T00:36:24.028Z,7.72
2018-01-26T00:37:26.513Z,7.78
2018-01-26T00:38:28.979Z,7.80
2018-01-26T00:39:31.443Z,7.79
2018-01-26T00:40:33.907Z,7.56
2018-01-26T00:41:36.370Z,7.44
2018-01-26T00:42:38.859Z,7.52
2018-01-26T00:43:41.341Z,7.63
2018-01-26T00:44:43.806Z,7.59
2018-01-26T00:45:46.289Z,7.71
2018-01-26T00:46:48.764Z,7.68
2018-01-26T00:47:51.248Z,7.65
2018-01-26T00:48:53.710Z,7.53
2018-01-26T00:49:56.188Z,7.43
2018-01-26T00:50:58.668Z,7.39
2018-01-26T00:52:01.134Z,7.40
2018-01-26T00:53:03.608Z,7.33
2018-01-26T00:54:06.094Z,7.46
2018-01-26T00:55:08.587Z,7.35
2018-01-26T00:56:11.068Z,7.47
2018-01-26T00:57:13.534Z,7.48
2018-01-26T00:58:16.009Z,7.55
2018-01-26T00:59:18.493Z,7.38
2018-01-26T01:00:20.969Z,7.47
2018-01-26T01:01:23.446Z,7.43
2018-01-26T01:02:25.916Z,7.29
2018-01-26T01:03:28.380Z,7.42
2018-01-26T01:04:30.846Z,7.58
2018-01-26T01:05:33.325Z,7.42
2018-01-26T01:06:35.802Z,7.30
2018-01-26T01:07:38.267Z,7.29
2018-01-26T01:08:40.741Z,7.38
2018-01-26T01:09:43.221Z,7.33
2018-01-26T01:10:45.708Z,7.46
2018-01-26T01:11:48.182Z,7.54
2018-01-26T01:12:50.646Z,7.52
2018-01-26T01:13:53.126Z,7.47
2018-01-26T01:14:55.596Z,7.55
2018-01-26T01:15:58.061Z,7.37
2018-01-26T01:17:00.549Z,7.46
2018-01-26T01:18:03.015Z,7.37
2018-01-26T01:19:05.488Z,7.30
2018-01-26T01:20:07.976Z,7.31
2018-01-26T01:21:10.439Z,7.27
2018-01-26T01:22:12.912Z,7.34
2018-01-26T01:23:15.383Z,7.56
2018-01-26T01:24:17.859Z,7.57
2018-01-26T01:25:20.326Z,7.53
2018-01-26T01:26:22.800Z,7.59
2018-01-26T01:27:25.263Z,7.57
2018-01-26T01:28:27.747Z,7.62
2018-01-26T01:29:30.228Z,7.52
2018-01-26T01:30:32.704Z,7.51
2018-01-26T01:31:35.166Z,7.52
2018-01-26T01:32:37.631Z,7.55
2018-01-26T01:33:40.096Z,7.59
2018-01-26T01:34:42.581Z,7.57
2018-01-26T01:35:45.046Z,7.45
2018-01-26T01:36:47.511Z,7.56
2018-01-26T01:37:50.206Z,7.48
2018-01-26T01:38:52.671Z,7.45
2018-01-26T01:39:55.153Z,7.52
2018-01-26T01:40:57.614Z,7.48
2018-01-26T01:42:00.079Z,7.44
2018-01-26T01:43:02.558Z,7.40
2018-01-26T01:44:05.019Z,7.44
2018-01-26T01:45:07.483Z,7.54
2018-01-26T01:46:09.951Z,7.49
2018-01-26T01:47:12.429Z,7.48
2018-01-26T01:48:15.393Z,7.52
2018-01-26T01:49:17.876Z,7.32
2018-01-26T01:50:20.356Z,7.26
2018-01-26T01:51:22.844Z,7.18
2018-01-26T01:52:25.322Z,7.20
2018-01-26T01:53:27.795Z,7.15
2018-01-26T01:54:30.263Z,7.23
2018-01-26T01:55:32.742Z,7.14
2018-01-26T01:56:35.226Z,7.17
2018-01-26T01:57:37.709Z,7.09
2018-01-26T01:58:40.175Z,7.08
2018-01-26T01:59:42.639Z,7.18
2018-01-26T02:00:45.107Z,7.22
2018-01-26T02:01:47.585Z,7.31
2018-01-26T02:02:50.060Z,7.24
2018-01-26T02:03:52.537Z,7.32
2018-01-26T02:04:55.017Z,7.35
2018-01-26T02:05:57.474Z,7.25
2018-01-26T02:06:59.960Z,7.35
2018-01-26T02:08:02.431Z,7.39
2018-01-26T02:09:04.909Z,7.25
2018-01-26T02:10:07.374Z,7.23
2018-01-26T02:11:09.842Z,7.26
2018-01-26T02:12:12.329Z,7.49
2018-01-26T02:13:14.792Z,7.59
2018-01-26T02:14:17.255Z,7.55
2018-01-26T02:15:19.742Z,7.43
2018-01-26T02:16:22.217Z,7.54
2018-01-26T02:17:24.687Z,7.53
2018-01-26T02:18:27.155Z,7.48
2018-01-26T02:19:29.622Z,7.48
2018-01-26T02:20:32.100Z,7.63
2018-01-26T02:21:34.570Z,7.51
2018-01-26T02:22:37.046Z,7.42
2018-01-26T02:23:39.513Z,7.52
2018-01-26T02:24:41.988Z,7.54
2018-01-26T02:25:44.472Z,7.43
2018-01-26T02:26:46.938Z,7.38
2018-01-26T02:27:49.403Z,7.33
2018-01-26T02:28:51.861Z,7.49
2018-01-26T02:29:54.325Z,7.57
2018-01-26T02:30:56.787Z,7.50
2018-01-26T02:31:59.254Z,7.47
2018-01-26T02:33:01.734Z,7.45
2018-01-26T02:34:04.209Z,7.58
2018-01-26T02:35:06.674Z,7.59
2018-01-26T02:36:09.164Z,7.69
2018-01-26T02:37:11.645Z,7.58
2018-01-26T02:38:14.111Z,7.44
2018-01-26T02:39:16.570Z,7.43
2018-01-26T02:40:19.035Z,7.32
2018-01-26T02:41:21.503Z,7.50
2018-01-26T02:42:23.976Z,7.54
2018-01-26T02:43:26.443Z,7.39
2018-01-26T02:44:28.911Z,7.28
2018-01-26T02:45:31.380Z,7.21
2018-01-26T02:46:33.847Z,7.23
2018-01-26T02:47:36.310Z,7.33
2018-01-26T02:48:38.788Z,7.21
2018-01-26T02:49:41.277Z,7.16
2018-01-26T02:50:43.747Z,7.13
2018-01-26T02:51:46.211Z,7.16
2018-01-26T02:52:48.692Z,7.14
2018-01-26T02:53:51.170Z,7.24
2018-01-26T02:54:53.657Z,7.36
2018-01-26T02:55:56.119Z,7.42
2018-01-26T02:56:58.586Z,7.31
2018-01-26T02:58:01.051Z,7.30
2018-01-26T02:59:03.515Z,7.37
2018-01-26T03:00:06.002Z,7.36
2018-01-26T03:01:08.504Z,7.34
2018-01-26T03:02:11.011Z,7.41
2018-01-26T03:03:13.483Z,7.34
2018-01-26T03:04:15.947Z,7.28
2018-01-26T03:05:18.470Z,7.30
2018-01-26T03:06:21.004Z,7.39
2018-01-26T03:07:23.513Z,7.48
2018-01-26T03:08:25.982Z,7.46
2018-01-26T03:09:28.472Z,7.43
2018-01-26T03:10:30.945Z,7.56
2018-01-26T03:11:33.425Z,7.81
2018-01-26T03:12:35.888Z,7.66
2018-01-26T03:13:38.373Z,7.55
2018-01-26T03:14:40.835Z,7.56
2018-01-26T03:15:43.297Z,7.54
2018-01-26T03:16:45.773Z,7.40
2018-01-26T03:17:48.242Z,7.30
2018-01-26T03:18:50.717Z,7.44
2018-01-26T03:19:53.196Z,7.46
2018-01-26T03:20:55.666Z,7.51
2018-01-26T03:21:58.164Z,7.59
2018-01-26T03:23:00.634Z,7.62
2018-01-26T03:24:03.122Z,7.64
2018-01-26T03:25:05.604Z,7.74
2018-01-26T03:26:08.066Z,7.76
2018-01-26T03:27:10.544Z,7.75
2018-01-26T03:28:13.033Z,7.70
2018-01-26T03:29:15.498Z,7.70
2018-01-26T03:30:17.990Z,7.73
2018-01-26T03:31:20.465Z,7.70
2018-01-26T03:32:22.934Z,7.67
2018-01-26T03:33:25.399Z,7.65
2018-01-26T03:34:27.867Z,7.58
2018-01-26T03:35:30.339Z,7.55
2018-01-26T03:36:32.802Z,7.48
2018-01-26T03:37:35.280Z,7.48
2018-01-26T03:38:37.760Z,7.57
2018-01-26T03:39:40.222Z,7.49
2018-01-26T03:40:42.696Z,7.47
2018-01-26T03:41:45.158Z,7.46
2018-01-26T03:42:47.634Z,7.54
2018-01-26T03:43:50.102Z,7.53
2018-01-26T03:44:52.571Z,7.52
2018-01-26T03:45:55.034Z,7.47
2018-01-26T03:46:57.498Z,7.56
2018-01-26T03:47:59.962Z,7.67
2018-01-26T03:49:02.449Z,7.61
2018-01-26T03:50:04.911Z,7.57
2018-01-26T03:51:07.379Z,7.76
2018-01-26T03:52:10.101Z,7.80
2018-01-26T03:53:13.311Z,7.66
2018-01-26T03:54:15.789Z,7.46
2018-01-26T03:55:18.304Z,7.32
2018-01-26T03:56:20.786Z,7.22
2018-01-26T03:57:23.255Z,7.24
2018-01-26T03:58:25.760Z,7.44
2018-01-26T03:59:28.241Z,7.39
2018-01-26T04:00:30.719Z,7.41
2018-01-26T04:01:33.186Z,7.39
2018-01-26T04:02:35.665Z,7.51
2018-01-26T04:03:38.150Z,7.63
2018-01-26T04:04:40.626Z,7.66
2018-01-26T04:05:43.105Z,7.60
2018-01-26T04:06:45.571Z,7.65
2018-01-26T04:07:48.053Z,7.54
2018-01-26T04:08:50.539Z,7.33
2018-01-26T04:09:53.002Z,7.33
2018-01-26T04:10:55.466Z,7.34
2018-01-26T04:11:57.949Z,7.35
2018-01-26T04:13:00.435Z,7.33
2018-01-26T04:14:02.915Z,7.33
2018-01-26T04:15:05.397Z,7.20
2018-01-26T04:16:07.880Z,7.02
2018-01-26T04:17:10.357Z,7.01
2018-01-26T04:18:12.837Z,6.83
2018-01-26T04:19:15.322Z,6.73
2018-01-26T04:20:17.786Z,6.73
2018-01-26T04:21:20.262Z,6.91
2018-01-26T04:22:22.744Z,7.01
2018-01-26T04:23:25.210Z,7.16
2018-01-26T04:24:27.712Z,7.22
2018-01-26T04:25:30.194Z,7.31
2018-01-26T04:26:32.661Z,7.25
2018-01-26T04:27:35.145Z,7.32
2018-01-26T04:28:37.629Z,7.28
2018-01-26T04:29:40.106Z,7.26
2018-01-26T04:30:42.591Z,7.15
2018-01-26T04:31:45.069Z,7.23
2018-01-26T04:32:47.568Z,7.15
2018-01-26T04:33:50.040Z,6.94
2018-01-26T04:34:52.512Z,6.92
2018-01-26T04:35:54.979Z,6.93
2018-01-26T04:36:57.456Z,7.01
2018-01-26T04:37:59.937Z,7.05
2018-01-26T04:39:02.403Z,7.09
2018-01-26T04:40:04.928Z,7.06
2018-01-26T04:41:07.424Z,7.11
2018-01-26T04:42:09.899Z,7.02
2018-01-26T04:43:12.366Z,7.01
2018-01-26T04:44:14.850Z,6.98
2018-01-26T04:45:17.314Z,7.01
2018-01-26T04:46:19.775Z,6.93
2018-01-26T04:47:22.277Z,6.86
2018-01-26T04:48:24.738Z,6.78
2018-01-26T04:49:27.213Z,6.65
2018-01-26T04:50:29.702Z,6.54
2018-01-26T04:51:32.181Z,6.65
2018-01-26T04:52:34.660Z,6.61
2018-01-26T04:53:37.140Z,6.50
2018-01-26T04:54:39.632Z,6.45
2018-01-26T04:55:42.116Z,6.48
2018-01-26T04:56:44.587Z,6.67
2018-01-26T04:57:47.082Z,6.78
2018-01-26T04:58:49.547Z,6.75
2018-01-26T04:59:52.124Z,6.66
2018-01-26T05:00:54.678Z,6.85
2018-01-26T05:01:57.150Z,6.89
2018-01-26T05:02:59.652Z,6.83
2018-01-26T05:04:02.146Z,6.83
2018-01-26T05:05:04.628Z,6.70
2018-01-26T05:06:07.095Z,6.66
2018-01-26T05:07:09.581Z,6.66
2018-01-26T05:08:12.058Z,6.59
2018-01-26T05:09:14.536Z,6.55
2018-01-26T05:10:17.012Z,6.53
2018-01-26T05:11:19.496Z,6.58
2018-01-26T05:12:21.976Z,6.63
2018-01-26T05:13:24.452Z,6.77
2018-01-26T05:14:26.933Z,6.84
2018-01-26T05:15:29.453Z,6.91
2018-01-26T05:16:31.936Z,6.94
2018-01-26T05:17:34.425Z,6.90
2018-01-26T05:18:36.914Z,6.80
2018-01-26T05:19:39.378Z,6.79
2018-01-26T05:20:41.873Z,6.77
2018-01-26T05:21:44.347Z,6.85
2018-01-26T05:22:46.829Z,7.09
2018-01-26T05:23:49.318Z,7.06
2018-01-26T05:24:51.798Z,6.91
2018-01-26T05:25:54.294Z,6.97
2018-01-26T05:26:56.768Z,6.86
2018-01-26T05:27:59.244Z,6.88
2018-01-26T05:29:01.757Z,6.92
2018-01-26T05:30:04.198Z,6.95
2018-01-26T05:31:06.770Z,7.00
2018-01-26T05:32:09.237Z,7.01
2018-01-26T05:33:11.703Z,7.07
2018-01-26T05:34:14.246Z,7.11
2018-01-26T05:35:16.806Z,6.93
2018-01-26T05:36:19.266Z,6.89
2018-01-26T05:37:21.748Z,6.92
2018-01-26T05:38:24.234Z,7.08
2018-01-26T05:39:26.703Z,7.04
2018-01-26T05:40:29.184Z,6.99
2018-01-26T05:41:31.669Z,6.98
2018-01-26T05:42:34.148Z,6.84
2018-01-26T05:43:36.620Z,6.91
2018-01-26T05:44:39.088Z,6.94
2018-01-26T05:45:41.572Z,6.97
2018-01-26T05:46:44.043Z,7.08
2018-01-26T05:47:46.524Z,7.09
2018-01-26T05:48:48.990Z,7.14
2018-01-26T05:49:51.503Z,7.15
2018-01-26T05:50:53.978Z,7.06
2018-01-26T05:51:56.466Z,6.93
2018-01-26T05:52:58.935Z,6.85
2018-01-26T05:54:01.412Z,7.01
2018-01-26T05:55:03.908Z,7.02
2018-01-26T05:56:06.408Z,7.00
2018-01-26T05:57:08.889Z,7.15
2018-01-26T05:58:11.354Z,7.12
2018-01-26T05:59:13.828Z,7.08
2018-01-26T06:00:16.308Z,7.17
2018-01-26T06:01:18.775Z,7.17
2018-01-26T06:02:21.274Z,6.94
2018-01-26T06:03:23.742Z,6.87
2018-01-26T06:04:26.207Z,7.02
2018-01-26T06:05:28.689Z,6.92
2018-01-26T06:06:31.168Z,6.82
2018-01-26T06:07:33.626Z,6.87
2018-01-26T06:08:36.104Z,6.83
2018-01-26T06:09:38.580Z,7.04
2018-01-26T06:10:41.046Z,7.07
2018-01-26T06:11:43.524Z,7.01
2018-01-26T06:12:46.100Z,6.99
2018-01-26T06:13:48.760Z,7.01
2018-01-26T06:14:51.232Z,7.05
2018-01-26T06:15:53.716Z,7.09
2018-01-26T06:16:56.192Z,7.09
2018-01-26T06:17:58.664Z,7.03
2018-01-26T06:19:01.130Z,6.95
2018-01-26T06:20:03.606Z,6.99
2018-01-26T06:21:06.090Z,6.99
2018-01-26T06:22:08.554Z,6.94
2018-01-26T06:23:11.018Z,7.10
2018-01-26T06:24:13.483Z,7.12
2018-01-26T06:25:15.946Z,7.24
2018-01-26T06:26:18.424Z,7.24
2018-01-26T06:27:20.933Z,7.06
2018-01-26T06:28:23.400Z,6.94
2018-01-26T06:29:25.886Z,7.02
2018-01-26T06:30:28.346Z,7.01
2018-01-26T06:31:30.950Z,7.03
2018-01-26T06:32:33.425Z,7.03
2018-01-26T06:33:35.971Z,7.13
2018-01-26T06:34:38.434Z,7.01
2018-01-26T06:35:40.909Z,6.87
2018-01-26T06:36:43.366Z,6.78
2018-01-26T06:37:45.831Z,6.72
2018-01-26T06:38:48.290Z,6.73
2018-01-26T06:39:50.762Z,6.75
2018-01-26T06:40:53.277Z,6.70
2018-01-26T06:41:55.744Z,6.66
2018-01-26T06:42:58.229Z,6.74
2018-01-26T06:44:00.690Z,6.83
2018-01-26T06:45:03.169Z,6.85
2018-01-26T06:46:05.666Z,6.96
2018-01-26T06:47:23.219Z,7.22
2018-01-26T06:48:25.840Z,7.12
2018-01-26T06:49:28.324Z,7.15
2018-01-26T06:50:30.825Z,7.16
2018-01-26T06:51:33.381Z,7.17
2018-01-26T06:52:35.874Z,7.12
2018-01-26T06:53:38.363Z,7.09
2018-01-26T06:54:41.055Z,7.10
2018-01-26T06:55:43.532Z,7.30
2018-01-26T06:56:45.998Z,7.27
2018-01-26T06:57:48.544Z,7.10
2018-01-26T06:58:51.009Z,7.07
2018-01-26T06:59:53.484Z,6.85
2018-01-26T07:00:55.971Z,6.94
2018-01-26T07:01:58.434Z,6.75
2018-01-26T07:03:00.909Z,6.80
2018-01-26T07:04:03.389Z,6.72
2018-01-26T07:05:05.891Z,6.70
2018-01-26T07:06:08.441Z,6.66
2018-01-26T07:07:10.916Z,6.87
2018-01-26T07:08:13.396Z,6.91
2018-01-26T07:09:15.868Z,7.05
2018-01-26T07:10:18.374Z,6.92
2018-01-26T07:11:20.875Z,6.81
2018-01-26T07:12:23.330Z,6.74
2018-01-26T07:13:25.808Z,6.75
2018-01-26T07:14:28.289Z,6.75
2018-01-26T07:15:30.763Z,6.63
2018-01-26T07:16:33.277Z,6.81
2018-01-26T07:17:35.762Z,6.80
2018-01-26T07:18:38.260Z,6.85
2018-01-26T07:19:40.799Z,6.81
2018-01-26T07:20:43.285Z,6.97
2018-01-26T07:21:45.779Z,6.96
2018-01-26T07:22:48.265Z,6.90
2018-01-26T07:23:50.754Z,7.10
2018-01-26T07:24:53.228Z,7.15
2018-01-26T07:25:55.718Z,7.24
2018-01-26T07:26:58.206Z,7.26
2018-01-26T07:28:00.685Z,7.19
2018-01-26T07:29:03.227Z,7.05
2018-01-26T07:30:05.699Z,7.06
2018-01-26T07:31:08.449Z,7.08
2018-01-26T07:32:10.930Z,7.20
2018-01-26T07:33:13.437Z,7.18
2018-01-26T07:34:16.018Z,7.00
2018-01-26T07:35:18.496Z,7.12
2018-01-26T07:36:20.967Z,7.13
2018-01-26T07:37:23.470Z,7.13
2018-01-26T07:38:25.953Z,7.07
2018-01-26T07:39:28.504Z,6.97
2018-01-26T07:40:30.994Z,7.01
2018-01-26T07:41:33.463Z,6.98
2018-01-26T07:42:35.931Z,6.88
2018-01-26T07:43:38.413Z,6.85
2018-01-26T07:44:40.883Z,6.90
2018-01-26T07:45:43.345Z,7.10
2018-01-26T07:46:45.820Z,7.21
2018-01-26T07:47:48.297Z,7.16
2018-01-26T07:48:50.756Z,7.28
2018-01-26T07:49:53.236Z,7.30
2018-01-26T07:50:55.712Z,7.30
2018-01-26T07:51:58.193Z,7.31
2018-01-26T07:53:00.659Z,7.30
2018-01-26T07:54:03.136Z,7.21
2018-01-26T07:55:05.603Z,7.11
2018-01-26T07:56:08.085Z,7.16
2018-01-26T07:57:10.559Z,7.18
2018-01-26T07:58:13.040Z,7.08
2018-01-26T07:59:15.532Z,7.12
2018-01-26T08:00:18.023Z,7.17
2018-01-26T08:01:20.580Z,7.27
2018-01-26T08:02:23.043Z,7.34
2018-01-26T08:03:25.578Z,7.25
2018-01-26T08:04:28.058Z,7.26
2018-01-26T08:05:30.584Z,7.35
2018-01-26T08:06:33.038Z,7.45
2018-01-26T08:07:35.516Z,7.50
2018-01-26T08:08:37.996Z,7.43
2018-01-26T08:09:40.475Z,7.29
2018-01-26T08:10:42.938Z,7.41
2018-01-26T08:11:45.513Z,7.48
2018-01-26T08:12:47.980Z,7.53
2018-01-26T08:13:50.466Z,7.65
2018-01-26T08:14:53.021Z,7.81
2018-01-26T08:15:55.498Z,7.80
2018-01-26T08:16:57.981Z,7.79
2018-01-26T08:18:00.462Z,7.80
2018-01-26T08:19:02.938Z,7.97
2018-01-26T08:20:05.400Z,8.10
2018-01-26T08:21:07.922Z,8.03
2018-01-26T08:22:10.385Z,8.09
2018-01-26T08:23:12.849Z,8.20
2018-01-26T08:24:15.328Z,8.08
2018-01-26T08:25:17.794Z,8.23
2018-01-26T08:26:20.257Z,8.33
2018-01-26T08:27:22.739Z,8.36
2018-01-26T08:28:25.199Z,8.39
2018-01-26T08:29:27.670Z,8.40
2018-01-26T08:30:30.152Z,8.37
2018-01-26T08:31:32.637Z,8.40
2018-01-26T08:32:35.115Z,8.45
2018-01-26T08:33:37.589Z,8.41
2018-01-26T08:34:40.077Z,8.42
2018-01-26T08:35:42.552Z,8.49
2018-01-26T08:36:45.029Z,8.45
2018-01-26T08:37:47.496Z,8.31
2018-01-26T08:38:49.972Z,8.24
2018-01-26T08:39:52.448Z,8.40
2018-01-26T08:40:54.932Z,8.44
2018-01-26T08:41:57.445Z,8.48
2018-01-26T08:42:59.914Z,8.46
2018-01-26T08:44:02.391Z,8.36
2018-01-26T08:45:04.878Z,8.26
2018-01-26T08:46:07.385Z,8.33
2018-01-26T08:47:09.865Z,8.27
2018-01-26T08:48:12.359Z,8.48
2018-01-26T08:49:14.837Z,8.63
2018-01-26T08:50:17.324Z,8.76
2018-01-26T08:51:19.791Z,8.79
2018-01-26T08:52:22.268Z,8.86
2018-01-26T08:53:24.748Z,8.85
2018-01-26T08:54:27.256Z,8.79
2018-01-26T08:55:29.733Z,8.99
2018-01-26T08:56:32.206Z,9.06
2018-01-26T08:57:34.687Z,9.11
2018-01-26T08:58:37.151Z,9.33
2018-01-26T08:59:39.633Z,9.49
2018-01-26T09:00:42.100Z,9.61
2018-01-26T09:01:44.570Z,9.77
2018-01-26T09:02:47.065Z,9.81
2018-01-26T09:03:49.545Z,9.85
2018-01-26T09:04:52.014Z,10.06
2018-01-26T09:05:54.497Z,10.05
2018-01-26T09:06:57.007Z,9.90
2018-01-26T09:07:59.484Z,9.94
2018-01-26T09:09:02.013Z,9.88
2018-01-26T09:10:04.489Z,9.91
2018-01-26T09:11:07.007Z,9.75
2018-01-26T09:12:09.484Z,9.64
2018-01-26T09:13:11.962Z,9.67
2018-01-26T09:14:14.432Z,9.88
2018-01-26T09:15:16.890Z,9.82
2018-01-26T09:16:19.347Z,9.76
2018-01-26T09:17:21.820Z,9.68
2018-01-26T09:18:24.274Z,9.64
2018-01-26T09:19:26.757Z,9.59
2018-01-26T09:20:29.236Z,9.54
2018-01-26T09:21:31.709Z,9.60
2018-01-26T09:22:34.193Z,9.52
2018-01-26T09:23:36.666Z,9.42
2018-01-26T09:24:39.130Z,9.33
2018-01-26T09:25:41.598Z,9.38
2018-01-26T09:26:44.092Z,9.56
2018-01-26T09:27:46.550Z,9.50
2018-01-26T09:28:49.011Z,9.52
2018-01-26T09:29:51.466Z,9.53
2018-01-26T09:30:53.930Z,9.57
2018-01-26T09:31:56.437Z,9.62
2018-01-26T09:32:58.909Z,9.57
2018-01-26T09:34:01.407Z,9.62
2018-01-26T09:35:03.883Z,9.49
2018-01-26T09:36:06.357Z,9.36
2018-01-26T09:37:08.839Z,9.52
2018-01-26T09:38:11.300Z,9.67
2018-01-26T09:39:13.781Z,9.71
2018-01-26T09:40:16.246Z,9.76
2018-01-26T09:41:18.714Z,9.82
2018-01-26T09:42:21.205Z,9.86
2018-01-26T09:43:23.681Z,9.88
2018-01-26T09:44:26.153Z,9.85
2018-01-26T09:45:28.651Z,9.84
2018-01-26T09:46:31.114Z,9.68
2018-01-26T09:47:33.613Z,9.58
2018-01-26T09:48:36.070Z,9.58
2018-01-26T09:49:38.555Z,9.58
2018-01-26T09:50:41.029Z,9.56
2018-01-26T09:51:43.513Z,9.40
2018-01-26T09:52:45.991Z,9.25
2018-01-26T09:53:48.454Z,9.20
2018-01-26T09:54:50.973Z,9.21
2018-01-26T09:55:53.448Z,9.29
2018-01-26T09:56:55.919Z,9.10
2018-01-26T09:57:58.419Z,9.22
2018-01-26T09:59:00.940Z,9.20
2018-01-26T10:00:03.427Z,9.31
2018-01-26T10:01:05.929Z,9.38
2018-01-26T10:02:08.417Z,9.41
2018-01-26T10:03:10.906Z,9.10
2018-01-26T10:04:13.387Z,9.22
2018-01-26T10:05:15.873Z,9.24
2018-01-26T10:06:18.419Z,9.37
2018-01-26T10:07:20.883Z,9.34
2018-01-26T10:08:23.361Z,9.36
2018-01-26T10:09:25.838Z,9.47
2018-01-26T10:10:28.321Z,9.46
2018-01-26T10:11:30.787Z,9.50
2018-01-26T10:12:33.250Z,9.40
2018-01-26T10:13:35.738Z,9.50
2018-01-26T10:14:38.208Z,9.43
2018-01-26T10:15:40.695Z,9.40
2018-01-26T10:16:43.177Z,9.40
2018-01-26T10:17:45.657Z,9.52
2018-01-26T10:18:48.219Z,9.36
2018-01-26T10:19:50.682Z,9.51
2018-01-26T10:20:53.153Z,9.17
2018-01-26T10:21:55.630Z,9.47
2018-01-26T10:22:58.100Z,9.52
2018-01-26T10:24:00.617Z,9.64
2018-01-26T10:25:03.074Z,9.53
2018-01-26T10:26:05.536Z,9.59
2018-01-26T10:27:07.994Z,9.73
2018-01-26T10:28:10.472Z,9.53
2018-01-26T10:29:13.057Z,9.61
2018-01-26T10:30:15.514Z,9.52
2018-01-26T10:31:17.993Z,9.42
2018-01-26T10:32:20.455Z,9.65
2018-01-26T10:33:22.926Z,9.88
2018-01-26T10:34:25.415Z,9.95
2018-01-26T10:35:28.052Z,10.05
2018-01-26T10:36:30.525Z,10.09
2018-01-26T10:37:32.987Z,10.16
2018-01-26T10:38:36.334Z,10.05
2018-01-26T10:39:38.815Z,10.06
2018-01-26T10:40:41.289Z,9.94
2018-01-26T10:41:44.246Z,9.87
2018-01-26T10:42:46.756Z,9.81
2018-01-26T10:43:49.223Z,9.85
2018-01-26T10:44:51.709Z,9.83
2018-01-26T10:45:54.189Z,9.77
2018-01-26T10:46:56.700Z,9.77
2018-01-26T10:47:59.162Z,9.85
2018-01-26T10:49:01.652Z,9.95
2018-01-26T10:50:04.166Z,9.89
2018-01-26T10:51:06.651Z,10.04
2018-01-26T10:52:09.138Z,10.05
2018-01-26T10:53:11.635Z,9.95
2018-01-26T10:54:14.150Z,10.08
2018-01-26T10:55:16.690Z,10.05
2018-01-26T10:56:19.210Z,9.86
2018-01-26T10:57:21.750Z,10.05
2018-01-26T10:58:24.259Z,10.19
2018-01-26T10:59:26.727Z,10.21
2018-01-26T11:00:29.218Z,9.95
2018-01-26T11:01:31.691Z,9.80
2018-01-26T11:02:34.158Z,9.80
2018-01-26T11:03:36.627Z,9.82
2018-01-26T11:04:39.101Z,9.82
2018-01-26T11:05:41.728Z,9.89
2018-01-26T11:06:44.205Z,9.96
2018-01-26T11:07:46.670Z,9.84
2018-01-26T11:08:49.146Z,9.72
2018-01-26T11:09:51.633Z,9.67
2018-01-26T11:10:54.129Z,9.50
2018-01-26T11:11:56.599Z,9.33
2018-01-26T11:12:59.073Z,9.34
2018-01-26T11:14:01.530Z,9.25
2018-01-26T11:15:04.009Z,9.43
2018-01-26T11:16:06.503Z,9.48
2018-01-26T11:17:08.981Z,9.56
2018-01-26T11:18:11.463Z,9.53
2018-01-26T11:19:14.071Z,9.46
2018-01-26T11:20:16.545Z,9.49
2018-01-26T11:21:19.036Z,9.56
2018-01-26T11:22:21.502Z,9.59
2018-01-26T11:23:24.894Z,9.68
2018-01-26T11:24:27.454Z,9.64
2018-01-26T11:25:29.926Z,9.66
2018-01-26T11:26:32.444Z,9.75
2018-01-26T11:27:34.888Z,9.74
2018-01-26T11:28:37.369Z,9.78
2018-01-26T11:29:39.827Z,9.94
2018-01-26T11:30:42.302Z,10.04
2018-01-26T11:31:44.785Z,10.14
2018-01-26T11:32:47.269Z,10.10
2018-01-26T11:33:49.748Z,10.13
2018-01-26T11:34:52.210Z,10.11
2018-01-26T11:35:54.674Z,10.14
2018-01-26T11:36:57.143Z,10.20
2018-01-26T11:37:59.641Z,10.22
2018-01-26T11:39:02.111Z,10.14
2018-01-26T11:40:04.574Z,10.51
2018-01-26T11:41:07.048Z,10.43
2018-01-26T11:42:09.510Z,10.32
2018-01-26T11:43:11.993Z,10.79
2018-01-26T11:44:14.482Z,11.14
2018-01-26T11:45:16.985Z,11.21
2018-01-26T11:46:19.469Z,11.27
2018-01-26T11:47:21.938Z,11.20
2018-01-26T11:48:24.492Z,11.41
2018-01-26T11:49:26.954Z,11.57
2018-01-26T11:50:29.428Z,11.68
2018-01-26T11:51:31.928Z,11.82
2018-01-26T11:52:34.398Z,11.63
2018-01-26T11:53:36.863Z,11.43
2018-01-26T11:54:39.337Z,11.83
2018-01-26T11:55:41.814Z,12.06
2018-01-26T11:56:44.278Z,12.06
2018-01-26T11:57:46.756Z,11.75
2018-01-26T11:58:49.214Z,11.37
2018-01-26T11:59:51.690Z,11.52
2018-01-26T12:00:54.155Z,11.11
2018-01-26T12:01:56.647Z,10.71
2018-01-26T12:02:59.121Z,10.56
2018-01-26T12:04:01.594Z,10.81
2018-01-26T12:05:04.072Z,11.48
2018-01-26T12:06:06.553Z,11.51
2018-01-26T12:07:09.054Z,11.53
2018-01-26T12:08:11.519Z,11.74
2018-01-26T12:09:13.990Z,11.96
2018-01-26T12:10:16.456Z,12.04
2018-01-26T12:11:18.946Z,12.17
2018-01-26T12:12:21.411Z,11.72
2018-01-26T12:13:23.891Z,11.25
2018-01-26T12:14:26.378Z,11.42
2018-01-26T12:15:28.905Z,11.56
2018-01-26T12:16:31.371Z,11.41
2018-01-26T12:17:33.839Z,11.46
2018-01-26T12:18:36.331Z,11.23
2018-01-26T12:19:38.808Z,10.97
2018-01-26T12:20:41.276Z,10.67
2018-01-26T12:21:43.738Z,10.79
2018-01-26T12:22:46.194Z,11.02
2018-01-26T12:23:48.697Z,11.20
2018-01-26T12:24:51.170Z,11.22
2018-01-26T12:25:53.645Z,11.12
2018-01-26T12:26:56.111Z,11.69
2018-01-26T12:27:58.582Z,11.40
2018-01-26T12:29:01.047Z,11.87
2018-01-26T12:30:03.545Z,11.77
2018-01-26T12:31:06.021Z,11.89
2018-01-26T12:32:08.623Z,12.20
2018-01-26T12:33:11.140Z,12.48
2018-01-26T12:34:13.601Z,12.72
2018-01-26T12:35:16.067Z,12.83
2018-01-26T12:36:18.539Z,13.10
2018-01-26T12:37:21.002Z,13.40
2018-01-26T12:38:23.482Z,13.37
2018-01-26T12:39:25.979Z,13.11
2018-01-26T12:40:28.457Z,13.38
2018-01-26T12:41:30.922Z,13.43
2018-01-26T12:42:33.404Z,12.68
2018-01-26T12:43:35.885Z,13.20
2018-01-26T12:44:38.373Z,11.99
2018-01-26T12:45:40.856Z,11.58
2018-01-26T12:46:43.338Z,11.45
2018-01-26T12:47:45.819Z,11.75
2018-01-26T12:48:48.282Z,12.41
2018-01-26T12:49:50.747Z,12.31
2018-01-26T12:50:53.210Z,12.52
2018-01-26T12:51:55.692Z,12.90
2018-01-26T12:52:58.154Z,12.76
2018-01-26T12:54:00.636Z,12.40
2018-01-26T12:55:03.117Z,12.52
2018-01-26T12:56:05.601Z,12.19
2018-01-26T12:57:08.073Z,11.65
2018-01-26T12:58:10.553Z,11.36
2018-01-26T12:59:13.019Z,11.18
2018-01-26T13:00:15.542Z,11.37
2018-01-26T13:01:18.062Z,11.62
2018-01-26T13:02:20.547Z,11.25
2018-01-26T13:03:23.011Z,11.30
2018-01-26T13:04:25.507Z,11.08
2018-01-26T13:05:27.988Z,11.01
2018-01-26T13:06:30.463Z,10.76
2018-01-26T13:07:32.927Z,10.71
2018-01-26T13:08:35.409Z,10.33
2018-01-26T13:09:37.875Z,10.39
2018-01-26T13:10:40.347Z,10.18
2018-01-26T13:11:42.829Z,10.03
2018-01-26T13:12:45.365Z,10.02
2018-01-26T13:13:47.877Z,10.16
2018-01-26T13:14:50.344Z,10.14
2018-01-26T13:15:52.857Z,9.83
2018-01-26T13:16:55.336Z,9.88
2018-01-26T13:17:57.852Z,10.00
2018-01-26T13:19:00.330Z,10.20
2018-01-26T13:20:02.822Z,10.24
2018-01-26T13:21:05.306Z,10.22
2018-01-26T13:22:07.785Z,10.31
2018-01-26T13:23:10.265Z,10.58
2018-01-26T13:24:12.731Z,10.76
2018-01-26T13:25:15.195Z,11.18
2018-01-26T13:26:17.685Z,11.34
2018-01-26T13:27:20.147Z,11.71
2018-01-26T13:28:22.614Z,11.15
2018-01-26T13:29:25.086Z,11.37
2018-01-26T13:30:27.571Z,11.19
2018-01-26T13:31:30.045Z,11.23
2018-01-26T13:32:32.529Z,11.41
2018-01-26T13:33:35.006Z,11.08
2018-01-26T13:34:37.479Z,11.08
2018-01-26T13:35:39.947Z,11.23
2018-01-26T13:36:42.441Z,10.78
2018-01-26T13:37:44.904Z,11.05
2018-01-26T13:38:47.370Z,11.47
2018-01-26T13:39:49.835Z,11.86
2018-01-26T13:40:52.304Z,12.10
2018-01-26T13:41:54.766Z,12.37
2018-01-26T13:42:57.235Z,12.42
2018-01-26T13:43:59.713Z,12.47
2018-01-26T13:45:02.193Z,12.49
2018-01-26T13:46:04.676Z,12.64
2018-01-26T13:47:07.144Z,12.21